createdAt,value
2019-01-29T00:04:26.938Z,373.70
2019-01-29T00:19:42.902Z,305.33
2019-01-29T00:34:46.651Z,417.27
2019-01-29T00:50:10.449Z,258.73
2019-01-29T01:05:27.023Z,238.33
2019-01-29T01:20:30.634Z,431.77
2019-01-29T01:35:34.538Z,384.93
2019-01-29T01:50:57.777Z,313.47
2019-01-29T02:06:01.651Z,308.67
2019-01-29T02:21:24.797Z,277.47
2019-01-29T02:36:28.788Z,220.13
2019-01-29T02:51:32.602Z,247.07
2019-01-29T03:06:36.179Z,249.77
2019-01-29T03:21:39.982Z,253.93
2019-01-29T03:36:43.736Z,229.43
2019-01-29T03:51:47.569Z,224.00
2019-01-29T04:06:51.703Z,219.73
2019-01-29T04:21:55.535Z,209.00
2019-01-29T04:36:59.413Z,228.50
2019-01-29T04:52:03.355Z,234.77
2019-01-29T05:07:07.009Z,251.87
2019-01-29T05:22:10.885Z,305.50
2019-01-29T05:37:14.704Z,301.30
2019-01-29T05:52:18.690Z,274.73
2019-01-29T06:07:34.857Z,240.40
2019-01-29T06:22:38.605Z,269.93
2019-01-29T06:37:42.330Z,286.97
2019-01-29T06:53:05.776Z,270.00
2019-01-29T07:08:09.829Z,395.83
2019-01-29T07:23:13.806Z,202.03
2019-01-29T07:38:17.930Z,162.40
2019-01-29T07:53:40.966Z,151.33
2019-01-29T08:08:57.150Z,143.73
2019-01-29T08:24:13.673Z,143.33
2019-01-29T08:39:29.497Z,150.03
2019-01-29T08:54:33.622Z,163.13
2019-01-29T09:09:57.556Z,148.57
2019-01-29T09:25:01.876Z,156.00
2019-01-29T09:40:24.831Z,156.03
2019-01-29T09:55:30.047Z,144.37
2019-01-29T10:10:34.072Z,113.17
2019-01-29T10:25:38.222Z,102.97
2019-01-29T10:40:42.145Z,89.30
2019-01-29T10:55:47.440Z,73.03
2019-01-29T11:10:51.573Z,69.83
2019-01-29T11:26:14.805Z,62.30
2019-01-29T11:41:19.781Z,66.00
2019-01-29T11:56:24.046Z,63.30
2019-01-29T12:11:47.250Z,62.63
2019-01-29T12:27:10.576Z,59.10
2019-01-29T12:42:27.069Z,44.63
2019-01-29T12:57:30.859Z,44.40
2019-01-29T13:12:36.419Z,29.70
2019-01-29T13:27:59.638Z,27.60
2019-01-29T13:43:22.911Z,22.13
2019-01-29T13:58:26.569Z,20.53
2019-01-29T14:13:30.225Z,25.50
2019-01-29T14:28:34.091Z,28.27
2019-01-29T14:43:58.586Z,31.23
2019-01-29T14:59:02.224Z,31.30
2019-01-29T15:14:06.230Z,28.73
2019-01-29T15:29:09.860Z,34.13
2019-01-29T15:44:13.724Z,33.27
2019-01-29T15:59:17.673Z,20.03
2019-01-29T16:14:21.462Z,17.53
2019-01-29T16:29:25.342Z,20.67
2019-01-29T16:44:29.327Z,20.33
2019-01-29T16:59:33.088Z,19.13
2019-01-29T17:14:56.214Z,16.57
2019-01-29T17:30:12.174Z,20.70
2019-01-29T17:45:28.737Z,28.23
2019-01-29T18:00:40.298Z,25.40
2019-01-29T18:16:05.215Z,27.43
2019-01-29T18:31:28.455Z,30.03
2019-01-29T18:46:34.138Z,32.77
2019-01-29T19:01:57.480Z,31.57
2019-01-29T19:17:14.670Z,26.13
2019-01-29T19:32:31.125Z,28.03
2019-01-29T19:47:34.951Z,30.13
2019-01-29T20:02:38.890Z,27.20
2019-01-29T20:17:42.927Z,28.27
2019-01-29T20:32:58.720Z,64.93
2019-01-29T20:48:14.655Z,43.17
2019-01-29T21:03:18.405Z,26.47
2019-01-29T21:18:22.326Z,23.40
2019-01-29T21:33:26.143Z,24.33
2019-01-29T21:48:49.582Z,39.17
2019-01-29T22:03:53.528Z,48.73
2019-01-29T22:19:16.568Z,40.77
2019-01-29T22:34:20.360Z,36.07
2019-01-29T22:49:24.045Z,33.17
2019-01-29T23:04:27.845Z,36.27
2019-01-29T23:19:31.650Z,28.53
2019-01-29T23:34:35.342Z,38.10
2019-01-29T23:49:39.200Z,38.73
